createdAt,value
2023-04-09T00:00:18.349Z,83.44
2023-04-09T00:01:18.363Z,83.45
2023-04-09T00:02:18.450Z,83.49
2023-04-09T00:03:18.355Z,83.52
2023-04-09T00:04:19.159Z,83.59
2023-04-09T00:05:18.287Z,83.56
2023-04-09T00:06:18.288Z,83.61
2023-04-09T00:07:18.310Z,83.64
2023-04-09T00:08:18.260Z,83.70
2023-04-09T00:09:18.215Z,83.70
2023-04-09T00:10:18.233Z,83.71
2023-04-09T00:11:18.203Z,83.73
2023-04-09T00:12:18.216Z,83.76
2023-04-09T00:13:25.371Z,83.81
2023-04-09T00:14:19.185Z,83.87
2023-04-09T00:15:29.897Z,83.95
2023-04-09T00:16:19.218Z,83.95
2023-04-09T00:17:18.154Z,83.98
2023-04-09T00:18:18.164Z,83.99
2023-04-09T00:19:18.098Z,84.02
2023-04-09T00:20:18.142Z,84.06
2023-04-09T00:21:18.088Z,84.14
2023-04-09T00:22:18.097Z,84.14
2023-04-09T00:23:18.240Z,84.16
2023-04-09T00:24:18.081Z,84.22
2023-04-09T00:25:18.072Z,84.28
2023-04-09T00:26:18.039Z,84.34
2023-04-09T00:27:18.030Z,84.28
2023-04-09T00:28:18.020Z,84.26
2023-04-09T00:29:18.007Z,84.29
2023-04-09T00:30:17.980Z,84.35
2023-04-09T00:31:20.605Z,84.33
2023-04-09T00:32:17.994Z,84.38
2023-04-09T00:33:17.958Z,84.51
2023-04-09T00:34:18.040Z,84.58
2023-04-09T00:35:17.914Z,84.53
2023-04-09T00:36:17.920Z,84.60
2023-04-09T00:37:17.900Z,84.63
2023-04-09T00:38:17.926Z,84.76
2023-04-09T00:39:18.141Z,84.69
2023-04-09T00:40:17.892Z,84.72
2023-04-09T00:41:17.852Z,84.73
2023-04-09T00:42:17.868Z,84.78
2023-04-09T00:43:17.828Z,84.86
2023-04-09T00:44:18.027Z,84.83
2023-04-09T00:45:17.820Z,84.88
2023-04-09T00:46:17.925Z,84.90
2023-04-09T00:47:18.277Z,84.91
2023-04-09T00:48:17.809Z,84.91
2023-04-09T00:49:17.768Z,84.93
2023-04-09T00:50:17.766Z,84.92
2023-04-09T00:51:17.751Z,85.02
2023-04-09T00:52:18.281Z,85.06
2023-04-09T00:53:17.716Z,85.05
2023-04-09T00:54:17.749Z,85.06
2023-04-09T00:55:17.777Z,85.04
2023-04-09T00:56:17.703Z,85.08
2023-04-09T00:57:17.687Z,85.01
2023-04-09T00:58:17.685Z,85.01
2023-04-09T00:59:17.660Z,84.96
2023-04-09T01:00:19.107Z,85.09
2023-04-09T01:01:17.685Z,85.09
2023-04-09T01:02:17.710Z,85.05
2023-04-09T01:03:18.082Z,85.09
2023-04-09T01:04:17.588Z,85.19
2023-04-09T01:05:17.561Z,85.32
2023-04-09T01:06:17.575Z,85.28
2023-04-09T01:07:17.540Z,85.25
2023-04-09T01:08:17.571Z,85.19
2023-04-09T01:09:17.513Z,85.22
2023-04-09T01:10:17.529Z,85.21
2023-04-09T01:11:17.654Z,85.19
2023-04-09T01:12:18.293Z,85.26
2023-04-09T01:13:17.491Z,85.23
2023-04-09T01:14:17.478Z,85.24
2023-04-09T01:15:18.389Z,85.20
2023-04-09T01:16:17.487Z,85.18
2023-04-09T01:17:17.442Z,85.15
2023-04-09T01:18:18.262Z,85.24
2023-04-09T01:19:18.158Z,85.29
2023-04-09T01:20:18.884Z,85.30
2023-04-09T01:21:18.285Z,85.32
2023-04-09T01:22:17.376Z,85.30
2023-04-09T01:23:18.286Z,85.32
2023-04-09T01:24:18.828Z,85.31
2023-04-09T01:25:17.331Z,85.37
2023-04-09T01:26:18.512Z,85.42
2023-04-09T01:27:18.094Z,85.31
2023-04-09T01:28:18.314Z,84.94
2023-04-09T01:29:17.302Z,84.88
2023-04-09T01:30:18.078Z,84.57
2023-04-09T01:31:18.029Z,84.32
2023-04-09T01:32:17.317Z,84.18
2023-04-09T01:33:17.232Z,84.25
2023-04-09T01:34:18.077Z,84.27
2023-04-09T01:35:17.300Z,84.24
2023-04-09T01:36:17.405Z,84.19
2023-04-09T01:37:17.300Z,84.23
2023-04-09T01:38:17.224Z,84.21
2023-04-09T01:39:17.784Z,84.32
2023-04-09T01:40:17.184Z,84.30
2023-04-09T01:41:17.186Z,84.29
2023-04-09T01:42:17.206Z,84.28
2023-04-09T01:43:17.238Z,84.26
2023-04-09T01:44:17.278Z,84.21
2023-04-09T01:45:17.107Z,84.15
2023-04-09T01:46:17.387Z,84.01
2023-04-09T01:47:17.106Z,83.93
2023-04-09T01:48:17.100Z,83.89
2023-04-09T01:49:17.120Z,83.84
2023-04-09T01:50:17.108Z,83.80
2023-04-09T01:51:17.122Z,83.79
2023-04-09T01:52:17.138Z,83.75
2023-04-09T01:53:17.033Z,83.77
2023-04-09T01:54:17.021Z,83.72
2023-04-09T01:55:17.180Z,83.69
2023-04-09T01:56:16.992Z,83.70
2023-04-09T01:57:17.214Z,83.70
2023-04-09T01:58:16.986Z,83.70
2023-04-09T01:59:17.231Z,83.70
2023-04-09T02:00:17.179Z,83.71
2023-04-09T02:01:17.266Z,83.61
2023-04-09T02:02:18.510Z,83.57
2023-04-09T02:03:17.307Z,83.59
2023-04-09T02:04:18.351Z,83.58
2023-04-09T02:05:16.860Z,83.60
2023-04-09T02:06:17.335Z,83.62
2023-04-09T02:07:17.321Z,83.64
2023-04-09T02:08:18.296Z,83.62
2023-04-09T02:09:16.882Z,83.61
2023-04-09T02:10:16.820Z,83.54
2023-04-09T02:11:17.389Z,83.36
2023-04-09T02:12:16.854Z,83.36
2023-04-09T02:13:16.777Z,83.13
2023-04-09T02:14:16.974Z,82.96
2023-04-09T02:15:17.239Z,82.86
2023-04-09T02:16:18.228Z,82.77
2023-04-09T02:17:16.726Z,82.70
2023-04-09T02:18:16.742Z,82.67
2023-04-09T02:19:18.173Z,82.62
2023-04-09T02:20:16.722Z,82.56
2023-04-09T02:21:16.680Z,82.58
2023-04-09T02:22:16.723Z,82.59
2023-04-09T02:23:17.343Z,82.61
2023-04-09T02:24:16.669Z,82.66
2023-04-09T02:25:17.340Z,82.74
2023-04-09T02:26:16.641Z,82.77
2023-04-09T02:27:16.927Z,82.85
2023-04-09T02:28:16.614Z,82.93
2023-04-09T02:29:16.592Z,83.05
2023-04-09T02:30:16.681Z,83.02
2023-04-09T02:31:16.768Z,83.09
2023-04-09T02:32:16.615Z,83.14
2023-04-09T02:33:16.613Z,83.14
2023-04-09T02:34:16.633Z,83.19
2023-04-09T02:35:16.818Z,83.22
2023-04-09T02:36:16.848Z,83.21
2023-04-09T02:37:16.521Z,83.19
2023-04-09T02:38:16.919Z,83.19
2023-04-09T02:39:16.489Z,83.16
2023-04-09T02:40:17.926Z,83.12
2023-04-09T02:41:16.444Z,83.09
2023-04-09T02:42:16.469Z,83.07
2023-04-09T02:43:16.953Z,83.08
2023-04-09T02:44:16.952Z,83.08
2023-04-09T02:45:16.419Z,83.08
2023-04-09T02:46:17.182Z,83.08
2023-04-09T02:47:16.406Z,83.11
2023-04-09T02:48:16.388Z,83.15
2023-04-09T02:49:16.372Z,83.19
2023-04-09T02:50:16.338Z,83.26
2023-04-09T02:51:16.395Z,83.34
2023-04-09T02:52:16.327Z,83.44
2023-04-09T02:53:16.318Z,83.63
2023-04-09T02:54:16.376Z,83.79
2023-04-09T02:55:16.364Z,83.84
2023-04-09T02:56:16.283Z,83.81
2023-04-09T02:57:16.289Z,83.84
2023-04-09T02:58:16.288Z,83.92
2023-04-09T02:59:17.268Z,83.94
2023-04-09T03:00:16.241Z,84.05
2023-04-09T03:01:16.400Z,84.18
2023-04-09T03:02:17.771Z,84.30
2023-04-09T03:03:17.828Z,84.36
2023-04-09T03:04:16.278Z,84.45
2023-04-09T03:05:16.201Z,84.54
2023-04-09T03:06:16.186Z,84.61
2023-04-09T03:07:16.196Z,84.66
2023-04-09T03:08:16.151Z,84.72
2023-04-09T03:09:16.132Z,84.80
2023-04-09T03:10:16.121Z,84.78
2023-04-09T03:11:17.587Z,84.80
2023-04-09T03:12:16.266Z,84.80
2023-04-09T03:13:16.271Z,84.78
2023-04-09T03:14:16.095Z,84.75
2023-04-09T03:15:16.077Z,84.76
2023-04-09T03:16:16.070Z,84.75
2023-04-09T03:17:16.044Z,84.72
2023-04-09T03:18:16.080Z,84.68
2023-04-09T03:19:17.479Z,84.64
2023-04-09T03:20:16.260Z,84.55
2023-04-09T03:21:16.021Z,84.49
2023-04-09T03:22:16.004Z,84.46
2023-04-09T03:23:16.341Z,84.49
2023-04-09T03:24:16.029Z,84.48
2023-04-09T03:25:15.938Z,84.37
2023-04-09T03:26:16.430Z,84.29
2023-04-09T03:27:16.284Z,84.24
2023-04-09T03:28:16.128Z,84.16
2023-04-09T03:29:15.919Z,84.10
2023-04-09T03:30:15.879Z,84.07
2023-04-09T03:31:16.127Z,84.04
2023-04-09T03:32:17.856Z,84.00
2023-04-09T03:33:15.903Z,83.95
2023-04-09T03:34:16.025Z,83.92
2023-04-09T03:35:17.293Z,83.92
2023-04-09T03:36:15.811Z,83.96
2023-04-09T03:37:15.845Z,83.98
2023-04-09T03:38:15.784Z,84.00
2023-04-09T03:39:16.396Z,84.02
2023-04-09T03:40:15.756Z,84.05
2023-04-09T03:41:15.762Z,84.11
2023-04-09T03:42:16.398Z,84.15
2023-04-09T03:43:15.761Z,84.15
2023-04-09T03:44:16.093Z,84.17
2023-04-09T03:45:15.724Z,84.15
2023-04-09T03:46:15.706Z,84.10
2023-04-09T03:47:16.132Z,84.10
2023-04-09T03:48:15.681Z,84.10
2023-04-09T03:49:15.669Z,84.10
2023-04-09T03:50:15.657Z,84.17
2023-04-09T03:51:15.655Z,84.18
2023-04-09T03:52:15.638Z,84.20
2023-04-09T03:53:15.624Z,84.23
2023-04-09T03:54:15.608Z,84.28
2023-04-09T03:55:16.414Z,84.31
2023-04-09T03:56:15.575Z,84.38
2023-04-09T03:57:15.593Z,84.47
2023-04-09T03:58:16.402Z,84.55
2023-04-09T03:59:17.010Z,84.58
2023-04-09T04:00:16.419Z,84.58
2023-04-09T04:01:15.536Z,84.66
2023-04-09T04:02:15.608Z,84.72
2023-04-09T04:03:15.656Z,84.74
2023-04-09T04:04:15.531Z,84.74
2023-04-09T04:05:15.475Z,84.76
2023-04-09T04:06:15.536Z,84.70
2023-04-09T04:07:15.482Z,84.68
2023-04-09T04:08:15.428Z,84.66
2023-04-09T04:09:15.440Z,84.57
2023-04-09T04:10:15.402Z,84.53
2023-04-09T04:11:15.417Z,84.51
2023-04-09T04:12:15.408Z,84.48
2023-04-09T04:13:15.399Z,84.47
2023-04-09T04:14:15.418Z,84.50
2023-04-09T04:15:15.429Z,84.46
2023-04-09T04:16:15.451Z,83.98
2023-04-09T04:17:15.369Z,83.52
2023-04-09T04:18:15.316Z,83.45
2023-04-09T04:19:15.431Z,83.39
2023-04-09T04:20:15.440Z,83.37
2023-04-09T04:21:15.431Z,83.33
2023-04-09T04:22:15.423Z,83.38
2023-04-09T04:23:15.288Z,83.40
2023-04-09T04:24:15.257Z,83.34
2023-04-09T04:25:15.263Z,83.44
2023-04-09T04:26:15.218Z,83.44
2023-04-09T04:27:15.299Z,83.46
2023-04-09T04:28:15.208Z,83.59
2023-04-09T04:29:15.213Z,83.81
2023-04-09T04:30:15.339Z,83.95
2023-04-09T04:31:15.198Z,84.00
2023-04-09T04:32:15.362Z,84.12
2023-04-09T04:33:15.160Z,84.35
2023-04-09T04:34:15.213Z,84.38
2023-04-09T04:35:15.151Z,84.43
2023-04-09T04:36:15.092Z,84.41
2023-04-09T04:37:15.102Z,84.38
2023-04-09T04:38:15.435Z,84.46
2023-04-09T04:39:15.086Z,84.53
2023-04-09T04:40:15.054Z,84.52
2023-04-09T04:41:15.067Z,84.49
2023-04-09T04:42:15.032Z,84.48
2023-04-09T04:43:15.445Z,84.39
2023-04-09T04:44:15.024Z,84.30
2023-04-09T04:45:15.454Z,84.16
2023-04-09T04:46:15.440Z,84.08
2023-04-09T04:47:15.346Z,84.10
2023-04-09T04:48:15.446Z,84.14
2023-04-09T04:49:14.982Z,84.25
2023-04-09T04:50:14.960Z,84.38
2023-04-09T04:51:16.411Z,84.53
2023-04-09T04:52:16.661Z,84.82
2023-04-09T04:53:14.916Z,84.88
2023-04-09T04:54:15.030Z,85.27
2023-04-09T04:55:14.908Z,85.38
2023-04-09T04:56:15.054Z,85.40
2023-04-09T04:57:14.887Z,85.55
2023-04-09T04:58:14.840Z,85.61
2023-04-09T04:59:15.100Z,85.66
2023-04-09T05:00:14.846Z,85.66
2023-04-09T05:01:15.304Z,85.74
2023-04-09T05:02:15.359Z,85.80
2023-04-09T05:03:14.891Z,85.79
2023-04-09T05:04:14.777Z,85.83
2023-04-09T05:05:14.793Z,85.83
2023-04-09T05:06:14.771Z,85.85
2023-04-09T05:07:14.812Z,85.82
2023-04-09T05:08:14.738Z,85.78
2023-04-09T05:09:14.746Z,85.72
2023-04-09T05:10:15.436Z,85.67
2023-04-09T05:11:14.715Z,85.67
2023-04-09T05:12:15.460Z,85.71
2023-04-09T05:13:14.687Z,85.71
2023-04-09T05:14:15.459Z,85.71
2023-04-09T05:15:15.483Z,85.73
2023-04-09T05:16:14.704Z,85.70
2023-04-09T05:17:15.325Z,85.69
2023-04-09T05:18:15.470Z,85.74
2023-04-09T05:19:14.622Z,85.78
2023-04-09T05:20:14.588Z,85.81
2023-04-09T05:21:14.657Z,85.78
2023-04-09T05:22:14.693Z,85.71
2023-04-09T05:23:15.485Z,85.58
2023-04-09T05:24:14.553Z,85.57
2023-04-09T05:25:15.540Z,85.49
2023-04-09T05:26:15.438Z,85.46
2023-04-09T05:27:14.512Z,85.30
2023-04-09T05:28:14.494Z,85.23
2023-04-09T05:29:14.501Z,85.18
2023-04-09T05:30:14.469Z,85.20
2023-04-09T05:31:14.574Z,85.23
2023-04-09T05:32:14.471Z,85.24
2023-04-09T05:33:14.494Z,85.34
2023-04-09T05:34:14.424Z,85.36
2023-04-09T05:35:14.424Z,85.38
2023-04-09T05:36:14.431Z,85.36
2023-04-09T05:37:14.431Z,85.32
2023-04-09T05:38:14.387Z,85.28
2023-04-09T05:39:14.497Z,85.26
2023-04-09T05:40:14.347Z,85.24
2023-04-09T05:41:14.361Z,85.17
2023-04-09T05:42:14.568Z,85.09
2023-04-09T05:43:14.331Z,84.98
2023-04-09T05:44:14.321Z,84.74
2023-04-09T05:45:14.328Z,84.67
2023-04-09T05:46:14.400Z,84.59
2023-04-09T05:47:14.312Z,84.56
2023-04-09T05:48:14.380Z,84.39
2023-04-09T05:49:14.266Z,84.29
2023-04-09T05:50:14.455Z,83.83
2023-04-09T05:51:14.257Z,83.72
2023-04-09T05:52:14.236Z,83.68
2023-04-09T05:53:14.247Z,83.63
2023-04-09T05:54:14.189Z,83.53
2023-04-09T05:55:14.218Z,83.38
2023-04-09T05:56:14.169Z,83.30
2023-04-09T05:57:14.510Z,83.16
2023-04-09T05:58:14.176Z,83.01
2023-04-09T05:59:14.151Z,82.88
2023-04-09T06:00:14.147Z,82.79
2023-04-09T06:01:14.144Z,82.77
2023-04-09T06:02:14.165Z,82.73
2023-04-09T06:03:14.677Z,82.68
2023-04-09T06:04:14.304Z,82.58
2023-04-09T06:05:14.510Z,82.42
2023-04-09T06:06:14.415Z,82.17
2023-04-09T06:07:15.501Z,82.17
2023-04-09T06:08:14.388Z,82.07
2023-04-09T06:09:14.094Z,81.73
2023-04-09T06:10:14.511Z,81.54
2023-04-09T06:11:14.519Z,80.82
2023-04-09T06:12:14.000Z,80.88
2023-04-09T06:13:14.019Z,80.54
2023-04-09T06:14:14.516Z,80.48
2023-04-09T06:15:14.529Z,80.41
2023-04-09T06:16:14.014Z,80.31
2023-04-09T06:17:13.940Z,79.91
2023-04-09T06:18:13.934Z,79.81
2023-04-09T06:19:14.095Z,79.73
2023-04-09T06:20:13.969Z,79.75
2023-04-09T06:21:15.370Z,79.48
2023-04-09T06:22:14.159Z,78.93
2023-04-09T06:23:14.207Z,77.76
2023-04-09T06:24:13.880Z,77.06
2023-04-09T06:25:13.885Z,76.77
2023-04-09T06:26:13.835Z,76.32
2023-04-09T06:27:14.350Z,76.18
2023-04-09T06:28:13.825Z,75.57
2023-04-09T06:29:13.859Z,75.57
2023-04-09T06:30:15.240Z,75.00
2023-04-09T06:31:13.850Z,74.53
2023-04-09T06:32:14.531Z,73.15
2023-04-09T06:33:13.800Z,71.66
2023-04-09T06:34:14.525Z,71.41
2023-04-09T06:35:15.192Z,71.04
2023-04-09T06:36:13.714Z,70.23
2023-04-09T06:37:15.159Z,69.02
2023-04-09T06:38:14.536Z,68.49
2023-04-09T06:39:13.718Z,67.82
2023-04-09T06:40:14.490Z,67.42
2023-04-09T06:41:13.673Z,66.44
2023-04-09T06:42:14.532Z,65.82
2023-04-09T06:43:14.540Z,65.01
2023-04-09T06:44:14.338Z,64.29
2023-04-09T06:45:13.615Z,64.35
2023-04-09T06:46:14.424Z,63.10
2023-04-09T06:47:13.806Z,62.34
2023-04-09T06:48:13.573Z,61.99
2023-04-09T06:49:13.583Z,61.43
2023-04-09T06:50:13.542Z,60.97
2023-04-09T06:51:13.554Z,60.64
2023-04-09T06:52:13.516Z,60.77
2023-04-09T06:53:15.006Z,60.35
2023-04-09T06:54:13.546Z,60.93
2023-04-09T06:55:13.550Z,60.51
2023-04-09T06:56:13.546Z,59.63
2023-04-09T06:57:13.545Z,59.40
2023-04-09T06:58:13.459Z,59.31
2023-04-09T06:59:13.470Z,58.84
2023-04-09T07:00:13.464Z,59.14
2023-04-09T07:01:13.421Z,57.40
2023-04-09T07:02:13.466Z,57.25
2023-04-09T07:03:13.616Z,56.85
2023-04-09T07:04:15.011Z,56.71
2023-04-09T07:05:13.373Z,55.40
2023-04-09T07:06:13.559Z,54.99
2023-04-09T07:07:13.339Z,55.33
2023-04-09T07:08:13.359Z,55.35
2023-04-09T07:09:13.521Z,54.27
2023-04-09T07:10:13.542Z,53.59
2023-04-09T07:11:13.307Z,53.63
2023-04-09T07:12:13.318Z,53.47
2023-04-09T07:13:13.273Z,52.96
2023-04-09T07:14:13.562Z,52.77
2023-04-09T07:15:13.249Z,52.58
2023-04-09T07:16:13.282Z,52.82
2023-04-09T07:17:13.552Z,52.09
2023-04-09T07:18:13.241Z,52.19
2023-04-09T07:19:13.239Z,51.42
2023-04-09T07:20:13.213Z,50.59
2023-04-09T07:21:13.178Z,50.29
2023-04-09T07:22:13.567Z,50.59
2023-04-09T07:23:13.150Z,49.79
2023-04-09T07:24:13.386Z,49.47
2023-04-09T07:25:13.569Z,49.73
2023-04-09T07:26:13.573Z,49.59
2023-04-09T07:27:13.122Z,49.65
2023-04-09T07:28:13.136Z,49.57
2023-04-09T07:29:13.085Z,49.55
2023-04-09T07:30:14.552Z,49.63
2023-04-09T07:31:13.597Z,49.37
2023-04-09T07:32:13.055Z,49.39
2023-04-09T07:33:13.294Z,48.91
2023-04-09T07:34:13.587Z,49.06
2023-04-09T07:35:13.036Z,48.46
2023-04-09T07:36:13.129Z,48.47
2023-04-09T07:37:13.676Z,48.76
2023-04-09T07:38:13.937Z,48.50
2023-04-09T07:39:13.581Z,48.47
2023-04-09T07:40:12.982Z,48.43
2023-04-09T07:41:12.967Z,47.90
2023-04-09T07:42:12.961Z,48.27
2023-04-09T07:43:13.049Z,48.09
2023-04-09T07:44:12.932Z,48.25
2023-04-09T07:45:12.894Z,47.97
2023-04-09T07:46:12.952Z,47.83
2023-04-09T07:47:13.183Z,47.98
2023-04-09T07:48:13.250Z,48.58
2023-04-09T07:49:13.271Z,48.38
2023-04-09T07:50:13.298Z,48.49
2023-04-09T07:51:12.827Z,48.67
2023-04-09T07:52:12.859Z,48.78
2023-04-09T07:53:12.946Z,48.68
2023-04-09T07:54:14.284Z,48.92
2023-04-09T07:55:13.483Z,49.75
2023-04-09T07:56:12.814Z,49.31
2023-04-09T07:57:13.571Z,49.87
2023-04-09T07:58:13.585Z,49.01
2023-04-09T07:59:13.551Z,48.81
2023-04-09T08:00:13.464Z,48.44
2023-04-09T08:01:12.723Z,48.84
2023-04-09T08:02:15.206Z,48.50
2023-04-09T08:03:12.917Z,48.77
2023-04-09T08:04:13.768Z,48.16
2023-04-09T08:05:12.966Z,48.73
2023-04-09T08:06:12.677Z,49.15
2023-04-09T08:07:13.529Z,48.59
2023-04-09T08:08:13.606Z,49.18
2023-04-09T08:09:12.617Z,48.62
2023-04-09T08:10:12.621Z,48.61
2023-04-09T08:11:12.590Z,48.84
2023-04-09T08:12:12.639Z,49.81
2023-04-09T08:13:12.630Z,49.12
2023-04-09T08:14:12.582Z,50.22
2023-04-09T08:15:12.616Z,50.47
2023-04-09T08:16:12.632Z,50.18
2023-04-09T08:17:12.536Z,50.09
2023-04-09T08:18:12.530Z,49.48
2023-04-09T08:19:12.510Z,50.35
2023-04-09T08:20:12.551Z,50.97
2023-04-09T08:21:12.485Z,50.61
2023-04-09T08:22:12.501Z,50.40
2023-04-09T08:23:12.457Z,50.66
2023-04-09T08:24:12.478Z,50.19
2023-04-09T08:25:12.441Z,50.93
2023-04-09T08:26:12.596Z,50.45
2023-04-09T08:27:12.422Z,51.09
2023-04-09T08:28:13.877Z,51.70
2023-04-09T08:29:12.615Z,52.38
2023-04-09T08:30:12.399Z,51.66
2023-04-09T08:31:12.367Z,51.53
2023-04-09T08:32:12.453Z,51.67
2023-04-09T08:33:12.332Z,52.12
2023-04-09T08:34:12.620Z,52.09
2023-04-09T08:35:12.324Z,51.88
2023-04-09T08:36:12.336Z,51.73
2023-04-09T08:37:12.657Z,52.11
2023-04-09T08:38:12.294Z,52.36
2023-04-09T08:39:12.274Z,52.04
2023-04-09T08:40:12.283Z,52.26
2023-04-09T08:41:13.515Z,52.55
2023-04-09T08:42:12.662Z,52.35
2023-04-09T08:43:12.220Z,53.35
2023-04-09T08:44:12.237Z,53.52
2023-04-09T08:45:12.627Z,53.50
2023-04-09T08:46:12.252Z,53.44
2023-04-09T08:47:13.673Z,52.83
2023-04-09T08:48:12.264Z,52.69
2023-04-09T08:49:12.137Z,53.40
2023-04-09T08:50:13.607Z,53.30
2023-04-09T08:51:12.138Z,53.27
2023-04-09T08:52:12.164Z,53.19
2023-04-09T08:53:12.627Z,53.30
2023-04-09T08:54:12.109Z,53.75
2023-04-09T08:55:12.142Z,54.30
2023-04-09T08:56:12.125Z,54.76
2023-04-09T08:57:12.075Z,53.58
2023-04-09T08:58:12.611Z,53.75
2023-04-09T08:59:12.045Z,53.83
2023-04-09T09:00:12.040Z,54.33
2023-04-09T09:01:13.556Z,54.18
2023-04-09T09:02:12.678Z,54.40
2023-04-09T09:03:12.058Z,54.64
2023-04-09T09:04:12.024Z,55.12
2023-04-09T09:05:11.956Z,55.33
2023-04-09T09:06:12.130Z,54.45
2023-04-09T09:07:11.961Z,54.13
2023-04-09T09:08:11.963Z,53.76
2023-04-09T09:09:12.242Z,54.28
2023-04-09T09:10:11.918Z,55.11
2023-04-09T09:11:12.305Z,54.40
2023-04-09T09:12:11.882Z,53.80
2023-04-09T09:13:11.893Z,53.74
2023-04-09T09:14:12.291Z,53.95
2023-04-09T09:15:11.840Z,54.65
2023-04-09T09:16:12.517Z,54.18
2023-04-09T09:17:12.493Z,54.92
2023-04-09T09:18:11.838Z,54.11
2023-04-09T09:19:12.543Z,55.03
2023-04-09T09:20:11.790Z,53.67
2023-04-09T09:21:12.664Z,53.90
2023-04-09T09:22:13.240Z,54.57
2023-04-09T09:23:12.656Z,55.13
2023-04-09T09:24:13.196Z,54.65
2023-04-09T09:25:12.469Z,54.80
2023-04-09T09:26:12.664Z,55.02
2023-04-09T09:27:12.650Z,54.99
2023-04-09T09:28:12.701Z,56.49
2023-04-09T09:29:11.702Z,56.55
2023-04-09T09:30:11.717Z,55.14
2023-04-09T09:31:11.861Z,55.05
2023-04-09T09:32:13.163Z,55.81
2023-04-09T09:33:11.636Z,55.93
2023-04-09T09:34:11.679Z,56.14
2023-04-09T09:35:13.094Z,56.32
2023-04-09T09:36:11.722Z,54.94
2023-04-09T09:37:11.662Z,55.17
2023-04-09T09:38:11.617Z,55.37
2023-04-09T09:39:11.597Z,55.33
2023-04-09T09:40:11.664Z,56.31
2023-04-09T09:41:11.596Z,54.78
2023-04-09T09:42:11.585Z,54.52
2023-04-09T09:43:12.851Z,55.14
2023-04-09T09:44:11.573Z,55.20
2023-04-09T09:45:11.531Z,54.97
2023-04-09T09:46:13.009Z,54.91
2023-04-09T09:47:11.513Z,54.47
2023-04-09T09:48:11.555Z,54.76
2023-04-09T09:49:11.508Z,55.22
2023-04-09T09:50:11.481Z,55.35
2023-04-09T09:51:11.677Z,55.80
2023-04-09T09:52:11.444Z,56.45
2023-04-09T09:53:11.418Z,57.13
2023-04-09T09:54:11.441Z,56.98
2023-04-09T09:55:11.385Z,57.62
2023-04-09T09:56:12.837Z,57.83
2023-04-09T09:57:11.700Z,56.11
2023-04-09T09:58:11.364Z,56.45
2023-04-09T09:59:11.692Z,55.47
2023-04-09T10:00:11.357Z,56.43
2023-04-09T10:01:11.361Z,55.72
2023-04-09T10:02:13.002Z,55.68
2023-04-09T10:03:11.304Z,54.80
2023-04-09T10:04:12.794Z,55.08
2023-04-09T10:05:11.688Z,55.43
2023-04-09T10:06:11.267Z,54.91
2023-04-09T10:07:11.240Z,54.17
2023-04-09T10:08:11.246Z,54.57
2023-04-09T10:09:11.230Z,53.82
2023-04-09T10:10:11.701Z,52.75
2023-04-09T10:11:11.216Z,52.70
2023-04-09T10:12:11.228Z,53.46
2023-04-09T10:13:11.683Z,53.38
2023-04-09T10:14:11.198Z,54.77
2023-04-09T10:15:11.170Z,54.96
2023-04-09T10:16:11.190Z,54.28
2023-04-09T10:17:11.118Z,55.65
2023-04-09T10:18:11.702Z,56.00
2023-04-09T10:19:11.153Z,55.74
2023-04-09T10:20:12.547Z,55.29
2023-04-09T10:21:11.092Z,54.00
2023-04-09T10:22:11.089Z,54.58
2023-04-09T10:23:11.062Z,53.68
2023-04-09T10:24:11.088Z,53.44
2023-04-09T10:25:11.057Z,53.79
2023-04-09T10:26:12.487Z,53.51
2023-04-09T10:27:11.495Z,54.66
2023-04-09T10:28:11.031Z,54.69
2023-04-09T10:29:11.706Z,54.15
2023-04-09T10:30:11.017Z,55.51
2023-04-09T10:31:11.062Z,55.95
2023-04-09T10:32:10.960Z,53.27
2023-04-09T10:33:10.962Z,53.29
2023-04-09T10:34:11.085Z,53.50
2023-04-09T10:35:11.050Z,52.81
2023-04-09T10:36:11.083Z,54.31
2023-04-09T10:37:11.186Z,53.60
2023-04-09T10:38:10.905Z,53.33
2023-04-09T10:39:11.258Z,53.56
2023-04-09T10:40:10.896Z,54.12
2023-04-09T10:41:10.856Z,54.47
2023-04-09T10:42:11.292Z,53.61
2023-04-09T10:43:10.838Z,52.82
2023-04-09T10:44:11.401Z,52.41
2023-04-09T10:45:11.458Z,53.14
2023-04-09T10:46:11.489Z,54.28
2023-04-09T10:47:11.489Z,54.36
2023-04-09T10:48:10.777Z,52.94
2023-04-09T10:49:11.555Z,53.01
2023-04-09T10:50:12.244Z,53.01
2023-04-09T10:51:11.621Z,52.77
2023-04-09T10:52:12.530Z,52.36
2023-04-09T10:53:10.732Z,53.19
2023-04-09T10:54:10.697Z,53.20
2023-04-09T10:55:10.726Z,54.03
2023-04-09T10:56:10.679Z,54.73
2023-04-09T10:57:10.677Z,53.01
2023-04-09T10:58:12.707Z,52.49
2023-04-09T10:59:10.653Z,52.63
2023-04-09T11:00:12.089Z,52.18
2023-04-09T11:01:10.629Z,52.70
2023-04-09T11:02:10.682Z,54.15
2023-04-09T11:03:10.693Z,54.36
2023-04-09T11:04:10.900Z,53.76
2023-04-09T11:05:10.594Z,53.91
2023-04-09T11:06:10.670Z,54.57
2023-04-09T11:07:10.546Z,55.20
2023-04-09T11:08:10.530Z,54.98
2023-04-09T11:09:10.521Z,53.51
2023-04-09T11:10:10.518Z,54.02
2023-04-09T11:11:10.526Z,54.31
2023-04-09T11:12:10.480Z,54.63
2023-04-09T11:13:10.491Z,53.75
2023-04-09T11:14:10.744Z,53.94
2023-04-09T11:15:10.473Z,53.72
2023-04-09T11:16:10.483Z,54.05
2023-04-09T11:17:10.460Z,53.68
2023-04-09T11:18:10.419Z,53.25
2023-04-09T11:19:10.413Z,52.85
2023-04-09T11:20:10.380Z,53.15
2023-04-09T11:21:10.439Z,52.96
2023-04-09T11:22:10.394Z,53.34
2023-04-09T11:23:10.386Z,52.21
2023-04-09T11:24:10.336Z,52.79
2023-04-09T11:25:10.360Z,52.61
2023-04-09T11:26:10.348Z,52.31
2023-04-09T11:27:10.336Z,52.71
2023-04-09T11:28:10.292Z,53.46
2023-04-09T11:29:10.300Z,52.90
2023-04-09T11:30:10.266Z,53.02
2023-04-09T11:31:10.323Z,52.23
2023-04-09T11:32:10.268Z,51.80
2023-04-09T11:33:10.365Z,52.53
2023-04-09T11:34:10.232Z,52.21
2023-04-09T11:35:10.219Z,52.45
2023-04-09T11:36:10.242Z,52.40
2023-04-09T11:37:10.221Z,53.24
2023-04-09T11:38:10.180Z,52.38
2023-04-09T11:39:10.178Z,52.03
2023-04-09T11:40:10.145Z,50.77
2023-04-09T11:41:10.160Z,51.01
2023-04-09T11:42:10.145Z,51.98
2023-04-09T11:43:10.132Z,52.10
2023-04-09T11:44:10.098Z,51.56
2023-04-09T11:45:10.129Z,50.46
2023-04-09T11:46:10.079Z,51.35
2023-04-09T11:47:10.295Z,52.07
2023-04-09T11:48:10.069Z,51.50
2023-04-09T11:49:10.763Z,51.87
2023-04-09T11:50:10.093Z,51.90
2023-04-09T11:51:10.067Z,51.97
2023-04-09T11:52:10.008Z,51.31
2023-04-09T11:53:10.030Z,51.51
2023-04-09T11:54:10.768Z,51.77
2023-04-09T11:55:10.003Z,51.27
2023-04-09T11:56:10.762Z,50.97
2023-04-09T11:57:10.686Z,51.92
2023-04-09T11:58:09.949Z,52.59
2023-04-09T11:59:10.778Z,51.46
2023-04-09T12:00:09.981Z,52.43
2023-04-09T12:01:11.393Z,51.14
2023-04-09T12:02:10.817Z,50.72
2023-04-09T12:03:10.169Z,50.83
2023-04-09T12:04:10.084Z,50.05
2023-04-09T12:05:09.970Z,49.96
2023-04-09T12:06:09.953Z,49.73
2023-04-09T12:07:09.994Z,50.03
2023-04-09T12:08:09.831Z,50.86
2023-04-09T12:09:09.826Z,49.35
2023-04-09T12:10:09.798Z,48.76
2023-04-09T12:11:09.805Z,49.55
2023-04-09T12:12:09.796Z,49.21
2023-04-09T12:13:09.810Z,49.90
2023-04-09T12:14:09.745Z,50.65
2023-04-09T12:15:09.754Z,50.99
2023-04-09T12:16:09.752Z,51.40
2023-04-09T12:17:09.819Z,51.10
2023-04-09T12:18:09.720Z,50.16
2023-04-09T12:19:09.723Z,51.24
2023-04-09T12:20:09.823Z,51.66
2023-04-09T12:21:09.703Z,50.44
2023-04-09T12:22:09.659Z,50.04
2023-04-09T12:23:09.670Z,50.29
2023-04-09T12:24:09.663Z,49.03
2023-04-09T12:25:09.863Z,49.41
2023-04-09T12:26:09.617Z,49.32
2023-04-09T12:27:09.619Z,49.84
2023-04-09T12:28:11.097Z,50.28
2023-04-09T12:29:09.626Z,50.70
2023-04-09T12:30:09.581Z,48.92
2023-04-09T12:31:09.563Z,48.25
2023-04-09T12:32:09.578Z,49.30
2023-04-09T12:33:11.110Z,49.27
2023-04-09T12:34:09.541Z,50.63
2023-04-09T12:35:09.529Z,49.52
2023-04-09T12:36:09.807Z,49.23
2023-04-09T12:37:09.529Z,49.14
2023-04-09T12:38:09.468Z,50.46
2023-04-09T12:39:09.508Z,50.61
2023-04-09T12:40:09.458Z,50.37
2023-04-09T12:41:09.457Z,49.14
2023-04-09T12:42:09.810Z,48.89
2023-04-09T12:43:09.476Z,48.57
2023-04-09T12:44:10.121Z,48.87
2023-04-09T12:45:09.479Z,49.36
2023-04-09T12:46:09.904Z,49.76
2023-04-09T12:47:09.817Z,48.79
2023-04-09T12:48:09.383Z,48.87
2023-04-09T12:49:09.375Z,49.53
2023-04-09T12:50:09.354Z,49.86
2023-04-09T12:51:09.336Z,49.60
2023-04-09T12:52:10.795Z,48.91